Jard de Caparra, Puerto Rico
Current Conditions -  °F | °C
As of 10:56 PM on Wednesday 24 Dec 2014 (Local Time) from TJSJ Reporting Station
Broken Clouds Broken Clouds  
Wind Chill: 78°   Ceiling: 4100
Heat Index: 80°   Visibility: 10mi
Dew Point: 72°   Wind: 14mph
Humidity: 81%   Direction: 60°ENE
Pressure: 30.07"   Gusts: NA
Location:  18.1781°N, 66.1167°W
Report Text: TJSJ 250256Z 06012KT 10SM SCT027 SCT035 BKN041 26/22 A3007 RMK AO2 RAB0159E42 SLP183 P0004 60004 T02560222 50010
Loading
Personal Weather Stations






























Interactive Weather Map New forecast layout! Learn more

10-Day Weather Forecast

Advertisements
Track Severe Weather on mobile